Time;durP1;ratioP1;P1;durP2;ratioP2;P2;SDS_P1;SDS_P2;PMS_P1;PMS_P2;Temp;Humidity;BMP_temperature;BMP_pressure;BME280_temperature;BME280_humidity;BME280_pressure;Samples;Min_cycle;Max_cycle;Signal;HPM_P1;HPM_P2
2020/12/18 00:01:48;;;;;;;40.10;25.20;;;;;;;;;;5007842;28;20182;-57
2020/12/18 00:04:13;;;;;;;44.42;27.02;;;;;;;;;;5022427;28;20204;-57
2020/12/18 00:06:38;;;;;;;37.22;25.38;;;;;;;;;;5008321;28;20578;-58
2020/12/18 00:09:05;;;;;;;40.70;24.15;;;;;;;;;;4998757;28;20232;-57
2020/12/18 00:11:31;;;;;;;38.77;25.77;;;;;;;;;;5000838;28;20185;-57
2020/12/18 00:13:56;;;;;;;41.00;25.20;;;;;;;;;;5009690;28;20600;-58
2020/12/18 00:16:22;;;;;;;40.93;26.20;;;;;;;;;;5004702;28;20191;-58
2020/12/18 00:18:47;;;;;;;41.53;26.83;;;;;;;;;;5008280;28;20691;-57
2020/12/18 00:21:16;;;;;;;44.93;27.47;;;;;;;;;;5007068;28;20256;-57
2020/12/18 00:23:41;;;;;;;37.83;24.17;;;;;;;;;;5016259;28;20701;-57
2020/12/18 00:26:06;;;;;;;37.40;25.17;;;;;;;;;;5022586;28;21205;-57
2020/12/18 00:28:31;;;;;;;38.22;26.80;;;;;;;;;;5008305;28;20644;-58
2020/12/18 00:30:57;;;;;;;37.50;25.13;;;;;;;;;;5008875;28;20208;-57
2020/12/18 00:33:23;;;;;;;40.67;26.67;;;;;;;;;;5001266;28;20224;-58
2020/12/18 00:35:48;;;;;;;42.17;25.20;;;;;;;;;;5006125;28;20693;-58
2020/12/18 00:38:13;;;;;;;39.67;25.42;;;;;;;;;;5010879;28;21260;-57
2020/12/18 00:40:38;;;;;;;41.40;24.98;;;;;;;;;;5019005;28;20271;-57
2020/12/18 00:43:04;;;;;;;38.90;25.50;;;;;;;;;;5000254;28;20539;-57
2020/12/18 00:45:29;;;;;;;42.80;26.80;;;;;;;;;;5030272;28;20172;-57
2020/12/18 00:47:54;;;;;;;38.83;26.53;;;;;;;;;;5015863;28;20213;-58
2020/12/18 00:50:19;;;;;;;41.38;26.63;;;;;;;;;;5021374;28;20265;-57
2020/12/18 00:52:44;;;;;;;38.77;26.20;;;;;;;;;;5002604;28;20212;-57
2020/12/18 00:55:09;;;;;;;41.13;24.27;;;;;;;;;;5000699;28;20265;-57
2020/12/18 00:57:34;;;;;;;40.95;26.30;;;;;;;;;;5019528;28;20181;-57
2020/12/18 01:00:00;;;;;;;39.10;26.20;;;;;;;;;;5010723;28;20189;-57
2020/12/18 01:02:25;;;;;;;41.10;25.92;;;;;;;;;;5004077;28;20206;-57
2020/12/18 01:04:50;;;;;;;35.60;24.17;;;;;;;;;;5019990;28;20194;-57
2020/12/18 01:07:15;;;;;;;40.58;25.40;;;;;;;;;;5013193;28;20247;-57
2020/12/18 01:09:40;;;;;;;39.53;25.30;;;;;;;;;;5006464;28;20220;-58
2020/12/18 01:12:10;;;;;;;44.00;25.55;;;;;;;;;;5008037;28;20210;-57
2020/12/18 01:14:35;;;;;;;38.40;25.97;;;;;;;;;;5006698;28;20701;-56
2020/12/18 01:17:00;;;;;;;42.65;25.85;;;;;;;;;;5023090;28;21168;-57
2020/12/18 01:19:25;;;;;;;40.13;26.02;;;;;;;;;;5004397;28;20178;-56
2020/12/18 01:21:51;;;;;;;37.47;25.13;;;;;;;;;;5000193;28;20184;-56
2020/12/18 01:24:19;;;;;;;38.80;25.53;;;;;;;;;;5012558;28;20224;-56
2020/12/18 01:26:44;;;;;;;37.80;25.00;;;;;;;;;;5005686;28;20270;-56
2020/12/18 01:29:09;;;;;;;41.97;25.60;;;;;;;;;;5012104;28;20607;-56
2020/12/18 01:31:34;;;;;;;41.65;25.38;;;;;;;;;;5015943;28;20645;-57
2020/12/18 01:34:00;;;;;;;39.73;26.17;;;;;;;;;;4995423;28;20210;-56
2020/12/18 01:36:25;;;;;;;40.17;25.33;;;;;;;;;;5008756;28;20183;-57
2020/12/18 01:38:50;;;;;;;38.20;24.70;;;;;;;;;;5002707;28;20220;-56
2020/12/18 01:41:16;;;;;;;40.77;25.53;;;;;;;;;;5007235;28;20180;-56
2020/12/18 01:43:41;;;;;;;42.40;25.77;;;;;;;;;;5006389;28;20184;-57
2020/12/18 01:46:09;;;;;;;41.00;24.03;;;;;;;;;;5012331;28;20207;-57
2020/12/18 01:48:35;;;;;;;35.43;23.10;;;;;;;;;;5002801;28;20180;-57
2020/12/18 01:51:00;;;;;;;42.53;25.77;;;;;;;;;;5003415;28;20605;-57
2020/12/18 01:53:26;;;;;;;41.00;26.23;;;;;;;;;;5015630;28;20193;-57
2020/12/18 01:55:52;;;;;;;37.50;24.37;;;;;;;;;;5000292;28;20171;-57
2020/12/18 01:58:17;;;;;;;38.63;25.40;;;;;;;;;;4998326;28;20178;-57
2020/12/18 02:00:42;;;;;;;39.95;25.38;;;;;;;;;;5003751;28;20523;-58
2020/12/18 02:03:08;;;;;;;45.40;25.70;;;;;;;;;;5018435;28;20184;-58
2020/12/18 02:05:33;;;;;;;37.77;24.83;;;;;;;;;;5002601;28;20181;-58
2020/12/18 02:08:02;;;;;;;40.65;24.67;;;;;;;;;;5009077;28;20247;-57
2020/12/18 02:10:27;;;;;;;38.93;24.33;;;;;;;;;;5009956;28;20195;-58
2020/12/18 02:12:53;;;;;;;38.90;23.90;;;;;;;;;;5018639;28;20652;-57
2020/12/18 02:15:19;;;;;;;34.83;24.40;;;;;;;;;;5007882;28;20581;-57
2020/12/18 02:17:45;;;;;;;43.07;25.90;;;;;;;;;;4998066;28;20592;-57
2020/12/18 02:20:10;;;;;;;39.33;25.30;;;;;;;;;;5008855;28;20646;-58
2020/12/18 02:22:35;;;;;;;44.30;25.83;;;;;;;;;;5005551;28;20184;-57
2020/12/18 02:25:01;;;;;;;44.72;26.45;;;;;;;;;;5012919;28;20217;-59
2020/12/18 02:27:27;;;;;;;43.20;26.47;;;;;;;;;;5002433;28;20543;-56
2020/12/18 02:29:52;;;;;;;37.70;24.93;;;;;;;;;;4993765;28;20596;-57
2020/12/18 02:32:18;;;;;;;40.60;26.00;;;;;;;;;;5006583;28;20213;-57
2020/12/18 02:34:43;;;;;;;42.03;25.80;;;;;;;;;;5013361;28;20191;-57
2020/12/18 02:37:08;;;;;;;39.28;24.13;;;;;;;;;;5003837;28;20173;-57
2020/12/18 02:39:33;;;;;;;42.13;23.23;;;;;;;;;;5018073;28;20647;-56
2020/12/18 02:41:58;;;;;;;41.33;24.40;;;;;;;;;;5009814;28;20313;-56
2020/12/18 02:44:24;;;;;;;39.13;25.20;;;;;;;;;;5000101;28;20825;-56
2020/12/18 02:46:49;;;;;;;44.57;25.33;;;;;;;;;;5012236;28;20193;-59
2020/12/18 02:49:14;;;;;;;43.70;25.27;;;;;;;;;;5013854;28;20528;-57
2020/12/18 02:51:40;;;;;;;42.07;26.67;;;;;;;;;;5015392;28;20182;-57
2020/12/18 02:54:05;;;;;;;43.13;25.53;;;;;;;;;;5008603;28;20175;-57
2020/12/18 02:56:30;;;;;;;45.35;27.00;;;;;;;;;;5020698;28;20257;-57
2020/12/18 02:58:56;;;;;;;38.92;24.92;;;;;;;;;;4997866;28;20361;-57
2020/12/18 03:01:21;;;;;;;40.33;25.50;;;;;;;;;;4996605;28;20174;-57
2020/12/18 03:03:46;;;;;;;43.70;25.97;;;;;;;;;;5017943;28;20185;-57
2020/12/18 03:06:11;;;;;;;43.38;27.60;;;;;;;;;;5009152;28;20451;-57
2020/12/18 03:08:36;;;;;;;44.03;25.90;;;;;;;;;;5002297;28;20181;-57
2020/12/18 03:11:02;;;;;;;40.97;26.50;;;;;;;;;;5011704;28;20182;-57
2020/12/18 03:13:27;;;;;;;43.53;25.40;;;;;;;;;;5003240;28;20297;-57
2020/12/18 03:15:52;;;;;;;43.05;25.40;;;;;;;;;;5013357;28;20702;-57
2020/12/18 03:18:18;;;;;;;39.95;27.33;;;;;;;;;;5009196;28;20208;-57
2020/12/18 03:20:43;;;;;;;45.85;26.23;;;;;;;;;;5007104;28;20594;-57
2020/12/18 03:23:08;;;;;;;45.40;26.02;;;;;;;;;;5009400;28;20178;-56
2020/12/18 03:25:34;;;;;;;39.42;24.95;;;;;;;;;;5012489;28;20216;-57
2020/12/18 03:28:00;;;;;;;41.60;26.63;;;;;;;;;;5013508;28;20214;-56
2020/12/18 03:30:26;;;;;;;46.75;26.35;;;;;;;;;;5025680;28;20608;-56
2020/12/18 03:32:51;;;;;;;44.30;26.10;;;;;;;;;;5008310;28;20204;-56
2020/12/18 03:35:16;;;;;;;38.63;25.05;;;;;;;;;;5012401;28;20612;-56
2020/12/18 03:37:41;;;;;;;44.88;27.30;;;;;;;;;;5020910;28;20184;-56
2020/12/18 03:40:06;;;;;;;40.00;25.60;;;;;;;;;;5019866;28;20183;-57
2020/12/18 03:42:31;;;;;;;39.55;25.63;;;;;;;;;;5022641;28;20246;-57
2020/12/18 03:44:56;;;;;;;42.33;26.45;;;;;;;;;;5032276;28;20181;-57
2020/12/18 03:47:21;;;;;;;43.80;27.30;;;;;;;;;;5027233;28;20651;-57
2020/12/18 03:49:47;;;;;;;41.97;24.55;;;;;;;;;;5007570;28;20181;-57
2020/12/18 03:52:12;;;;;;;41.23;25.50;;;;;;;;;;5022965;28;20203;-57
2020/12/18 03:54:37;;;;;;;35.20;25.55;;;;;;;;;;5013924;28;20175;-57
2020/12/18 03:57:02;;;;;;;42.10;25.52;;;;;;;;;;5027508;28;20190;-57
2020/12/18 03:59:27;;;;;;;40.63;23.90;;;;;;;;;;5014438;28;20199;-57
2020/12/18 04:01:52;;;;;;;37.40;24.37;;;;;;;;;;5011707;28;20175;-57
2020/12/18 04:04:18;;;;;;;42.92;24.92;;;;;;;;;;5023805;28;20650;-58
2020/12/18 04:06:43;;;;;;;45.63;26.02;;;;;;;;;;5015289;28;20176;-57
2020/12/18 04:09:08;;;;;;;42.33;25.27;;;;;;;;;;5007076;28;20174;-57
2020/12/18 04:11:33;;;;;;;35.10;23.43;;;;;;;;;;5012728;28;20214;-57
2020/12/18 04:13:58;;;;;;;41.28;24.15;;;;;;;;;;5019541;28;20200;-57
2020/12/18 04:16:23;;;;;;;44.38;25.52;;;;;;;;;;5027813;28;20275;-57
2020/12/18 04:18:49;;;;;;;38.80;24.13;;;;;;;;;;5026720;28;20187;-56
2020/12/18 04:21:14;;;;;;;41.93;23.70;;;;;;;;;;5015641;28;20242;-58
2020/12/18 04:23:39;;;;;;;40.15;24.00;;;;;;;;;;5014792;28;20294;-57
2020/12/18 04:26:04;;;;;;;42.85;24.30;;;;;;;;;;5016610;28;20220;-57
2020/12/18 04:28:29;;;;;;;41.97;24.85;;;;;;;;;;5018679;28;20228;-56
2020/12/18 04:30:55;;;;;;;41.75;25.67;;;;;;;;;;5019073;28;20688;-57
2020/12/18 04:33:20;;;;;;;46.03;26.00;;;;;;;;;;5008033;28;20208;-57
2020/12/18 04:35:45;;;;;;;37.55;24.63;;;;;;;;;;5024729;28;20601;-57
2020/12/18 04:38:13;;;;;;;39.38;25.58;;;;;;;;;;5023644;28;20182;-57
2020/12/18 04:40:38;;;;;;;40.30;24.50;;;;;;;;;;5004918;28;20170;-57
2020/12/18 04:43:03;;;;;;;33.73;24.50;;;;;;;;;;5005888;28;20643;-58
2020/12/18 04:45:29;;;;;;;41.17;25.55;;;;;;;;;;5029197;28;20197;-57
2020/12/18 04:47:57;;;;;;;38.07;24.30;;;;;;;;;;5017861;28;20271;-56
2020/12/18 04:50:23;;;;;;;40.33;25.23;;;;;;;;;;5024294;28;20196;-56
2020/12/18 04:52:49;;;;;;;42.93;25.33;;;;;;;;;;5007365;28;20799;-57
2020/12/18 04:55:15;;;;;;;47.17;26.17;;;;;;;;;;5009844;28;20691;-57
2020/12/18 04:57:42;;;;;;;35.20;23.20;;;;;;;;;;5019435;28;20193;-57
2020/12/18 05:00:08;;;;;;;45.70;26.63;;;;;;;;;;5014021;28;20682;-57
2020/12/18 05:02:33;;;;;;;37.38;23.65;;;;;;;;;;5027184;28;20691;-58
2020/12/18 05:04:58;;;;;;;37.87;24.40;;;;;;;;;;5014135;28;20203;-58
2020/12/18 05:07:23;;;;;;;48.40;26.88;;;;;;;;;;5012209;28;20189;-58
2020/12/18 05:09:50;;;;;;;41.10;24.17;;;;;;;;;;5008527;28;20179;-59
2020/12/18 05:12:15;;;;;;;39.80;24.73;;;;;;;;;;5005871;28;20197;-58
2020/12/18 05:14:40;;;;;;;41.00;25.77;;;;;;;;;;5008016;28;20592;-57
2020/12/18 05:17:06;;;;;;;42.60;24.88;;;;;;;;;;5029135;28;20262;-58
2020/12/18 05:19:51;;;;;;;39.27;26.13;;;;;;;;;;5015891;28;20206;-58
2020/12/18 05:22:21;;;;;;;42.17;24.67;;;;;;;;;;5013027;28;20182;-58
2020/12/18 05:24:47;;;;;;;37.90;23.97;;;;;;;;;;5019295;28;20634;-56
2020/12/18 05:27:12;;;;;;;36.90;24.43;;;;;;;;;;5009235;28;20607;-58
2020/12/18 05:29:38;;;;;;;35.23;22.60;;;;;;;;;;5000723;28;20183;-58
2020/12/18 05:32:04;;;;;;;40.53;23.80;;;;;;;;;;5017030;28;20603;-58
2020/12/18 05:34:29;;;;;;;42.00;25.00;;;;;;;;;;5023455;28;20217;-59
2020/12/18 05:36:54;;;;;;;36.70;23.03;;;;;;;;;;5014235;28;20560;-59
2020/12/18 05:39:20;;;;;;;37.70;24.40;;;;;;;;;;5013984;28;20264;-58
2020/12/18 05:41:55;;;;;;;37.53;23.13;;;;;;;;;;5023369;28;20535;-58
2020/12/18 05:44:23;;;;;;;40.43;24.30;;;;;;;;;;5012932;28;20204;-58
2020/12/18 05:46:50;;;;;;;40.53;23.50;;;;;;;;;;5005949;28;20659;-58
2020/12/18 05:49:15;;;;;;;38.20;24.40;;;;;;;;;;5007015;28;21204;-58
2020/12/18 05:51:41;;;;;;;31.20;21.70;;;;;;;;;;5003690;28;20611;-57
2020/12/18 05:54:09;;;;;;;35.10;24.13;;;;;;;;;;5016123;28;20658;-58
2020/12/18 05:56:34;;;;;;;33.63;21.73;;;;;;;;;;5005093;28;20632;-58
2020/12/18 05:59:04;;;;;;;35.43;22.37;;;;;;;;;;5007922;28;21028;-59
2020/12/18 06:01:30;;;;;;;35.53;23.17;;;;;;;;;;5015186;28;20175;-58
2020/12/18 06:04:00;;;;;;;35.23;21.40;;;;;;;;;;5011422;28;20685;-58
2020/12/18 06:06:26;;;;;;;35.77;22.37;;;;;;;;;;5003121;28;20177;-57
2020/12/18 06:08:55;;;;;;;42.23;24.73;;;;;;;;;;5005849;28;20640;-58
2020/12/18 06:11:21;;;;;;;32.97;20.57;;;;;;;;;;5013177;28;20646;-58
2020/12/18 06:13:47;;;;;;;34.60;22.90;;;;;;;;;;5010563;28;20678;-58
2020/12/18 06:16:12;;;;;;;37.00;22.10;;;;;;;;;;5015445;28;20522;-58
2020/12/18 06:18:42;;;;;;;39.80;24.40;;;;;;;;;;4999428;28;20768;-58
2020/12/18 06:21:08;;;;;;;37.73;21.90;;;;;;;;;;5017996;28;20552;-58
2020/12/18 06:23:33;;;;;;;39.77;23.00;;;;;;;;;;5007442;28;20634;-58
2020/12/18 06:25:58;;;;;;;38.53;24.17;;;;;;;;;;5007734;28;20252;-58
2020/12/18 06:28:26;;;;;;;39.13;24.00;;;;;;;;;;5011151;28;20558;-58
2020/12/18 06:31:25;;;;;;;45.47;25.27;;;;;;;;;;5006359;28;20241;-58
2020/12/18 06:33:51;;;;;;;35.97;22.10;;;;;;;;;;4991177;28;20662;-58
2020/12/18 06:36:18;;;;;;;36.00;21.60;;;;;;;;;;4992103;28;20607;-59
2020/12/18 06:38:43;;;;;;;42.33;23.33;;;;;;;;;;4987544;28;20634;-58
2020/12/18 06:41:22;;;;;;;31.00;21.30;;;;;;;;;;4996662;28;20590;-58
2020/12/18 06:43:47;;;;;;;37.50;23.77;;;;;;;;;;5000216;28;20180;-58
2020/12/18 06:46:17;;;;;;;44.95;23.20;;;;;;;;;;4992442;28;21127;-58
2020/12/18 06:48:48;;;;;;;37.93;24.00;;;;;;;;;;5002388;28;20185;-58
2020/12/18 06:51:29;;;;;;;36.50;23.13;;;;;;;;;;4992461;28;20602;-58
2020/12/18 06:54:06;;;;;;;34.67;22.80;;;;;;;;;;5001046;28;20650;-58
2020/12/18 06:56:31;;;;;;;34.73;22.20;;;;;;;;;;5009639;28;20599;-58
2020/12/18 06:59:16;;;;;;;35.35;22.73;;;;;;;;;;5019238;28;20599;-58
2020/12/18 07:01:41;;;;;;;32.67;20.50;;;;;;;;;;5002549;28;20183;-58
2020/12/18 07:04:17;;;;;;;37.67;22.50;;;;;;;;;;5001573;28;20596;-58
2020/12/18 07:06:42;;;;;;;39.30;22.90;;;;;;;;;;5001916;28;20179;-59
2020/12/18 07:09:08;;;;;;;38.72;22.85;;;;;;;;;;5002377;28;20615;-58
2020/12/18 07:11:35;;;;;;;36.97;23.43;;;;;;;;;;4987686;28;20260;-58
2020/12/18 07:14:00;;;;;;;40.33;22.40;;;;;;;;;;4999761;28;20642;-57
2020/12/18 07:16:28;;;;;;;33.17;21.63;;;;;;;;;;4994762;28;20704;-58
2020/12/18 07:18:57;;;;;;;32.23;22.33;;;;;;;;;;5010974;28;20306;-58
2020/12/18 07:21:22;;;;;;;34.40;21.73;;;;;;;;;;4991570;28;21212;-58
2020/12/18 07:23:48;;;;;;;35.43;21.70;;;;;;;;;;4998864;28;21031;-57
2020/12/18 07:26:15;;;;;;;34.40;22.50;;;;;;;;;;5007841;28;20612;-58
2020/12/18 07:28:41;;;;;;;36.27;22.07;;;;;;;;;;5016225;28;20720;-57
2020/12/18 07:31:18;;;;;;;35.37;22.67;;;;;;;;;;5007365;28;20617;-58
2020/12/18 07:33:43;;;;;;;34.90;22.40;;;;;;;;;;4997858;28;20654;-58
2020/12/18 07:36:09;;;;;;;41.53;24.90;;;;;;;;;;5008169;28;20595;-58
2020/12/18 07:38:34;;;;;;;44.27;23.60;;;;;;;;;;4994500;28;20193;-57
2020/12/18 07:41:00;;;;;;;42.93;24.30;;;;;;;;;;5008546;28;20606;-57
2020/12/18 07:43:27;;;;;;;38.63;24.00;;;;;;;;;;5009679;28;20609;-58
2020/12/18 07:45:55;;;;;;;38.00;22.37;;;;;;;;;;5000976;28;20605;-59
2020/12/18 07:48:24;;;;;;;34.40;21.20;;;;;;;;;;5007518;28;20607;-58
2020/12/18 07:51:00;;;;;;;37.60;22.97;;;;;;;;;;5003935;28;20668;-58
2020/12/18 07:53:26;;;;;;;30.50;20.53;;;;;;;;;;5023973;28;20646;-58
2020/12/18 07:56:01;;;;;;;31.10;21.27;;;;;;;;;;5029695;28;20586;-58
2020/12/18 07:58:26;;;;;;;32.40;21.50;;;;;;;;;;5000394;28;20603;-58
2020/12/18 08:01:04;;;;;;;28.83;19.23;;;;;;;;;;4998532;28;20603;-58
2020/12/18 08:03:29;;;;;;;34.20;21.53;;;;;;;;;;4993105;28;20273;-59
2020/12/18 08:05:55;;;;;;;28.27;20.52;;;;;;;;;;5003232;28;20686;-58
2020/12/18 08:08:20;;;;;;;34.03;20.50;;;;;;;;;;5030778;28;20214;-59
2020/12/18 08:10:46;;;;;;;32.60;20.30;;;;;;;;;;5022023;28;20583;-58
2020/12/18 08:13:11;;;;;;;29.95;20.35;;;;;;;;;;4996849;28;20203;-58
2020/12/18 08:15:36;;;;;;;28.88;19.48;;;;;;;;;;5028027;28;20186;-58
2020/12/18 08:18:01;;;;;;;30.83;19.80;;;;;;;;;;5000218;28;20653;-59
2020/12/18 08:20:26;;;;;;;32.10;20.42;;;;;;;;;;4996587;28;20182;-59
2020/12/18 08:22:52;;;;;;;28.05;20.20;;;;;;;;;;5008002;28;20196;-59
2020/12/18 08:25:18;;;;;;;30.77;19.67;;;;;;;;;;5004283;28;20230;-58
2020/12/18 08:27:53;;;;;;;30.70;18.80;;;;;;;;;;5009223;28;20221;-58
2020/12/18 08:30:19;;;;;;;29.70;19.83;;;;;;;;;;5001384;28;20595;-58
2020/12/18 08:32:47;;;;;;;27.80;18.13;;;;;;;;;;5004642;28;21026;-58
2020/12/18 08:35:17;;;;;;;26.33;18.37;;;;;;;;;;5001473;28;20608;-58
2020/12/18 08:37:42;;;;;;;30.23;18.30;;;;;;;;;;5000943;28;20976;-58
2020/12/18 08:40:16;;;;;;;28.33;19.00;;;;;;;;;;4993183;28;20950;-58
2020/12/18 08:42:41;;;;;;;28.17;19.13;;;;;;;;;;4996409;28;20658;-58
2020/12/18 08:45:06;;;;;;;26.37;17.23;;;;;;;;;;4999044;28;20751;-58
2020/12/18 08:47:31;;;;;;;22.70;17.42;;;;;;;;;;5021157;28;20181;-58
2020/12/18 08:49:57;;;;;;;24.52;16.52;;;;;;;;;;5011770;28;20208;-58
2020/12/18 08:52:23;;;;;;;24.07;17.63;;;;;;;;;;5003210;28;20197;-58
2020/12/18 08:54:57;;;;;;;23.00;15.57;;;;;;;;;;5011079;28;20173;-58
2020/12/18 08:57:23;;;;;;;22.07;16.10;;;;;;;;;;5006140;28;21189;-58
2020/12/18 08:59:58;;;;;;;27.17;17.10;;;;;;;;;;5009866;28;20592;-56
2020/12/18 09:02:24;;;;;;;22.00;16.10;;;;;;;;;;4997830;28;21241;-57
2020/12/18 09:05:10;;;;;;;25.53;17.40;;;;;;;;;;4994007;28;20702;-58
2020/12/18 09:07:38;;;;;;;23.10;16.93;;;;;;;;;;4987638;28;20704;-57
2020/12/18 09:10:04;;;;;;;22.20;15.70;;;;;;;;;;4989488;28;20601;-57
2020/12/18 09:12:29;;;;;;;24.77;16.33;;;;;;;;;;4989789;28;21133;-58
2020/12/18 09:14:54;;;;;;;21.48;14.93;;;;;;;;;;4996500;28;20205;-58
2020/12/18 09:17:19;;;;;;;22.42;15.52;;;;;;;;;;4991175;28;20174;-59
2020/12/18 09:19:46;;;;;;;20.38;15.05;;;;;;;;;;4991494;28;20560;-58
2020/12/18 09:22:11;;;;;;;22.87;15.27;;;;;;;;;;4989543;28;20191;-59
2020/12/18 09:24:36;;;;;;;18.25;15.15;;;;;;;;;;4995272;28;20633;-58
2020/12/18 09:27:08;;;;;;;22.90;15.90;;;;;;;;;;5010784;28;20244;-58
2020/12/18 09:29:33;;;;;;;22.13;16.00;;;;;;;;;;5010912;28;20181;-58
2020/12/18 09:31:59;;;;;;;18.60;14.17;;;;;;;;;;5008827;28;20937;-59
2020/12/18 09:34:24;;;;;;;18.52;14.00;;;;;;;;;;5010509;28;20260;-59
2020/12/18 09:36:49;;;;;;;16.55;13.35;;;;;;;;;;5009152;28;20188;-58
2020/12/18 09:39:14;;;;;;;17.85;14.30;;;;;;;;;;5010487;28;20188;-58
2020/12/18 09:41:39;;;;;;;21.05;14.93;;;;;;;;;;5008700;28;20235;-58
2020/12/18 09:44:04;;;;;;;19.57;14.47;;;;;;;;;;4993805;28;20177;-58
2020/12/18 09:46:29;;;;;;;19.30;13.32;;;;;;;;;;5001506;28;20230;-58
2020/12/18 09:48:55;;;;;;;20.93;14.00;;;;;;;;;;5010398;28;20189;-58
2020/12/18 09:51:20;;;;;;;18.77;14.00;;;;;;;;;;5008286;28;20211;-58
2020/12/18 09:53:45;;;;;;;17.08;13.88;;;;;;;;;;4990667;28;20202;-58
2020/12/18 09:56:11;;;;;;;17.43;14.00;;;;;;;;;;4990726;28;20174;-58
2020/12/18 09:58:36;;;;;;;22.03;14.20;;;;;;;;;;4990566;28;20175;-59
2020/12/18 10:01:02;;;;;;;17.90;13.57;;;;;;;;;;4988793;28;20432;-59
2020/12/18 10:03:27;;;;;;;18.30;14.10;;;;;;;;;;5003075;28;20268;-58
2020/12/18 10:05:52;;;;;;;18.90;14.43;;;;;;;;;;5010372;28;20264;-58
2020/12/18 10:08:17;;;;;;;20.20;14.00;;;;;;;;;;5010209;28;20201;-58
2020/12/18 10:10:43;;;;;;;15.27;13.07;;;;;;;;;;5002250;28;20250;-58
2020/12/18 10:13:08;;;;;;;17.90;13.30;;;;;;;;;;4993221;28;20690;-59
2020/12/18 10:15:33;;;;;;;20.20;14.00;;;;;;;;;;5010326;28;20178;-58
2020/12/18 10:17:58;;;;;;;16.13;12.70;;;;;;;;;;5009972;28;20165;-58
2020/12/18 10:20:23;;;;;;;18.10;13.30;;;;;;;;;;5010219;28;20176;-58
2020/12/18 10:22:49;;;;;;;17.17;13.65;;;;;;;;;;5007552;28;20224;-58
2020/12/18 10:25:14;;;;;;;15.40;12.50;;;;;;;;;;5007868;28;20255;-58
2020/12/18 10:27:39;;;;;;;15.50;12.70;;;;;;;;;;5010100;28;20184;-58
2020/12/18 10:30:05;;;;;;;16.73;13.57;;;;;;;;;;5009977;28;20219;-58
2020/12/18 10:32:30;;;;;;;17.80;12.80;;;;;;;;;;5007960;28;20269;-58
2020/12/18 10:34:56;;;;;;;14.73;12.37;;;;;;;;;;5008119;28;20546;-58
2020/12/18 10:37:22;;;;;;;16.60;13.23;;;;;;;;;;5009830;28;20177;-58
2020/12/18 10:39:47;;;;;;;15.90;12.27;;;;;;;;;;4991190;28;20175;-58
2020/12/18 10:42:12;;;;;;;18.83;13.10;;;;;;;;;;4988263;28;20516;-58
2020/12/18 10:44:38;;;;;;;14.77;12.57;;;;;;;;;;4993204;28;20181;-58
2020/12/18 10:47:03;;;;;;;15.80;12.35;;;;;;;;;;5002664;28;20212;-59
2020/12/18 10:49:28;;;;;;;12.87;10.97;;;;;;;;;;5000264;28;20181;-58
2020/12/18 10:51:53;;;;;;;17.33;12.30;;;;;;;;;;4997056;28;20680;-58
2020/12/18 10:54:19;;;;;;;14.73;11.70;;;;;;;;;;4994352;28;20256;-58
2020/12/18 10:56:45;;;;;;;15.13;12.80;;;;;;;;;;4998812;28;20598;-58
2020/12/18 10:59:11;;;;;;;14.57;12.00;;;;;;;;;;4992374;28;20189;-58
2020/12/18 11:01:36;;;;;;;15.53;12.20;;;;;;;;;;5005035;28;20696;-58
2020/12/18 11:04:02;;;;;;;15.87;12.07;;;;;;;;;;5010552;28;20711;-58
2020/12/18 11:07:01;;;;;;;13.97;10.87;;;;;;;;;;4996790;28;20702;-58
2020/12/18 11:09:26;;;;;;;14.67;12.50;;;;;;;;;;4990782;28;20174;-59
2020/12/18 11:11:52;;;;;;;16.60;11.37;;;;;;;;;;4996898;28;20610;-58
2020/12/18 11:14:18;;;;;;;14.00;11.90;;;;;;;;;;5012478;28;20189;-58
2020/12/18 11:16:43;;;;;;;17.03;11.70;;;;;;;;;;4991904;28;20602;-58
2020/12/18 11:19:08;;;;;;;13.57;11.80;;;;;;;;;;4997440;28;20258;-58
2020/12/18 11:21:33;;;;;;;15.10;12.32;;;;;;;;;;4990609;28;20647;-59
2020/12/18 11:23:59;;;;;;;11.63;10.27;;;;;;;;;;4999115;28;20683;-58
2020/12/18 11:26:24;;;;;;;13.97;11.13;;;;;;;;;;5013038;28;20220;-58
2020/12/18 11:28:49;;;;;;;14.80;11.00;;;;;;;;;;5001502;28;20175;-58
2020/12/18 11:31:15;;;;;;;13.85;10.82;;;;;;;;;;5000183;28;20181;-59
2020/12/18 11:33:40;;;;;;;12.40;10.03;;;;;;;;;;5007050;28;20549;-59
2020/12/18 11:36:05;;;;;;;14.90;11.68;;;;;;;;;;5013246;28;20176;-58
2020/12/18 11:38:30;;;;;;;15.70;12.20;;;;;;;;;;5002837;28;20214;-58
2020/12/18 11:40:55;;;;;;;14.38;10.25;;;;;;;;;;4998678;28;20272;-59
2020/12/18 11:43:21;;;;;;;15.83;11.60;;;;;;;;;;5006202;28;20213;-58
2020/12/18 11:45:46;;;;;;;14.90;10.68;;;;;;;;;;5011431;28;20240;-56
2020/12/18 11:48:11;;;;;;;13.15;10.57;;;;;;;;;;5005891;28;20256;-57
2020/12/18 11:50:36;;;;;;;13.57;10.73;;;;;;;;;;5012372;28;20174;-57
2020/12/18 11:53:01;;;;;;;12.20;10.60;;;;;;;;;;5003175;28;20718;-58
2020/12/18 11:55:26;;;;;;;14.05;10.80;;;;;;;;;;5015164;28;20169;-57
2020/12/18 11:57:52;;;;;;;15.10;12.50;;;;;;;;;;5003566;28;20204;-57
2020/12/18 12:00:19;;;;;;;14.60;11.70;;;;;;;;;;5007414;28;20167;-57
2020/12/18 12:02:45;;;;;;;15.10;11.60;;;;;;;;;;5005320;28;20261;-57
2020/12/18 12:05:10;;;;;;;14.30;11.70;;;;;;;;;;5005965;28;21101;-57
2020/12/18 12:07:36;;;;;;;12.55;11.00;;;;;;;;;;4993817;28;20623;-57
2020/12/18 12:10:01;;;;;;;15.18;11.77;;;;;;;;;;4992745;28;20208;-57
2020/12/18 12:12:26;;;;;;;11.80;10.60;;;;;;;;;;4993050;28;20205;-58
2020/12/18 12:14:51;;;;;;;15.07;11.93;;;;;;;;;;4996357;28;20178;-57
2020/12/18 12:17:16;;;;;;;13.52;11.52;;;;;;;;;;5003574;28;20366;-58
2020/12/18 12:19:42;;;;;;;15.97;11.90;;;;;;;;;;5004176;28;20180;-58
2020/12/18 12:22:07;;;;;;;14.93;11.40;;;;;;;;;;5004483;28;20187;-57
2020/12/18 12:24:32;;;;;;;14.45;11.45;;;;;;;;;;5016783;28;20311;-57
2020/12/18 12:26:57;;;;;;;14.55;12.02;;;;;;;;;;5003061;28;20262;-57
2020/12/18 12:29:22;;;;;;;15.47;11.67;;;;;;;;;;5007952;28;20171;-48
2020/12/18 12:31:47;;;;;;;15.13;11.97;;;;;;;;;;5013121;28;20521;-48
2020/12/18 12:34:12;;;;;;;13.40;11.60;;;;;;;;;;4991334;28;20238;-48
2020/12/18 12:36:38;;;;;;;16.98;12.15;;;;;;;;;;4999981;28;20544;-49
2020/12/18 12:39:03;;;;;;;15.03;12.50;;;;;;;;;;5011926;28;20565;-48
2020/12/18 12:41:28;;;;;;;15.30;12.57;;;;;;;;;;5011533;28;20636;-48
2020/12/18 12:43:53;;;;;;;19.70;13.10;;;;;;;;;;5007828;28;20265;-49
2020/12/18 12:46:20;;;;;;;18.10;12.20;;;;;;;;;;5011554;28;20175;-58
2020/12/18 12:48:46;;;;;;;14.63;12.33;;;;;;;;;;5030681;28;20217;-57
2020/12/18 12:51:14;;;;;;;14.83;12.20;;;;;;;;;;5018346;28;20638;-57
2020/12/18 12:53:39;;;;;;;15.70;12.10;;;;;;;;;;5007866;28;20708;-57
2020/12/18 12:56:04;;;;;;;14.57;11.75;;;;;;;;;;5009413;28;20950;-57
2020/12/18 12:58:29;;;;;;;15.15;11.70;;;;;;;;;;5008777;28;20180;-57
2020/12/18 13:00:54;;;;;;;14.30;11.05;;;;;;;;;;5010901;28;20181;-57
2020/12/18 13:03:19;;;;;;;15.10;11.77;;;;;;;;;;5008404;28;20659;-56
2020/12/18 13:05:44;;;;;;;17.77;11.95;;;;;;;;;;5010633;28;20177;-57
2020/12/18 13:08:10;;;;;;;17.60;12.80;;;;;;;;;;5008807;28;20269;-57
2020/12/18 13:10:39;;;;;;;14.93;12.10;;;;;;;;;;5010752;28;20244;-59
2020/12/18 13:13:05;;;;;;;14.13;11.50;;;;;;;;;;5008261;28;20284;-57
2020/12/18 13:15:30;;;;;;;19.77;11.93;;;;;;;;;;4989075;28;20603;-57
2020/12/18 13:17:55;;;;;;;16.00;11.20;;;;;;;;;;4991181;28;20184;-57
2020/12/18 13:20:20;;;;;;;16.17;12.10;;;;;;;;;;5008277;28;20260;-57
2020/12/18 13:22:45;;;;;;;14.50;11.38;;;;;;;;;;5008778;28;20186;-56
2020/12/18 13:25:10;;;;;;;15.00;10.95;;;;;;;;;;5008548;28;20313;-56
2020/12/18 13:27:35;;;;;;;12.50;10.30;;;;;;;;;;5010410;28;20229;-58
2020/12/18 13:30:01;;;;;;;12.77;11.38;;;;;;;;;;5009151;28;20202;-57
2020/12/18 13:32:26;;;;;;;14.45;11.02;;;;;;;;;;5008319;28;20309;-57
2020/12/18 13:34:51;;;;;;;13.27;11.07;;;;;;;;;;5004228;28;20233;-56
2020/12/18 13:37:16;;;;;;;11.98;10.23;;;;;;;;;;4990446;28;20241;-57
2020/12/18 13:39:41;;;;;;;12.57;10.43;;;;;;;;;;4991860;28;20261;-56
2020/12/18 13:42:06;;;;;;;13.30;9.95;;;;;;;;;;5010306;28;20168;-57
2020/12/18 13:44:31;;;;;;;17.23;10.70;;;;;;;;;;5006685;28;20234;-56
2020/12/18 13:46:57;;;;;;;12.40;11.07;;;;;;;;;;5008377;28;20207;-57
2020/12/18 13:49:22;;;;;;;11.38;10.15;;;;;;;;;;5010301;28;20166;-57
2020/12/18 13:51:47;;;;;;;12.23;9.63;;;;;;;;;;4995193;28;20194;-57
2020/12/18 13:54:13;;;;;;;12.53;10.00;;;;;;;;;;4986812;28;20676;-56
2020/12/18 13:56:42;;;;;;;12.17;9.77;;;;;;;;;;5016450;28;20179;-57
2020/12/18 13:59:08;;;;;;;13.40;10.50;;;;;;;;;;5029824;28;20176;-56
2020/12/18 14:01:33;;;;;;;11.75;10.25;;;;;;;;;;5010765;28;20637;-56
2020/12/18 14:03:58;;;;;;;12.52;10.10;;;;;;;;;;4988297;28;20186;-57
2020/12/18 14:06:23;;;;;;;12.90;11.05;;;;;;;;;;4991125;28;20181;-56
2020/12/18 14:08:48;;;;;;;14.80;12.40;;;;;;;;;;4990267;28;20864;-56
2020/12/18 14:11:13;;;;;;;13.05;11.55;;;;;;;;;;4991714;28;20177;-57